Time;durP1;ratioP1;P1;durP2;ratioP2;P2;SDS_P1;SDS_P2;PMS_P1;PMS_P2;Temp;Humidity;BMP_temperature;BMP_pressure;BME280_temperature;BME280_humidity;BME280_pressure;Samples;Min_cycle;Max_cycle;Signal;HPM_P1;HPM_P2
2023/07/16 00:01:02;;;;;;;9.90;6.22;;;;;;;26.55;46.53;99010.56;5021042;28;20136;-69
2023/07/16 00:03:34;;;;;;;9.02;6.45;;;;;;;26.42;46.20;99014.66;5005548;28;20056;-69
2023/07/16 00:06:00;;;;;;;10.98;6.63;;;;;;;26.38;46.47;99008.16;5020819;28;20048;-69
2023/07/16 00:08:26;;;;;;;11.52;6.47;;;;;;;26.37;46.26;99014.66;5020408;28;20490;-68
2023/07/16 00:10:51;;;;;;;10.15;6.40;;;;;;;26.36;46.56;99015.75;5004018;28;20490;-70
2023/07/16 00:13:17;;;;;;;10.68;7.05;;;;;;;26.36;46.49;99009.50;5004883;28;20391;-68
2023/07/16 00:15:43;;;;;;;11.70;6.50;;;;;;;26.34;46.58;99009.78;5022799;28;20056;-69
2023/07/16 00:18:09;;;;;;;11.80;6.97;;;;;;;26.28;46.53;99002.69;5022950;28;20574;-68
2023/07/16 00:20:35;;;;;;;11.50;7.18;;;;;;;26.24;46.87;99007.06;5006752;28;20434;-69
2023/07/16 00:23:01;;;;;;;10.35;6.65;;;;;;;26.21;47.13;99013.06;5023162;28;20446;-69
2023/07/16 00:25:29;;;;;;;12.43;7.10;;;;;;;26.18;47.10;99008.19;5023313;28;20056;-68
2023/07/16 00:27:54;;;;;;;12.10;7.40;;;;;;;26.17;47.22;99016.63;5039302;28;20384;-69
2023/07/16 00:30:20;;;;;;;16.05;7.20;;;;;;;26.22;47.31;99008.41;5022904;28;20041;-68
2023/07/16 00:32:49;;;;;;;10.18;7.15;;;;;;;26.17;47.04;99017.41;5040325;28;20048;-69
2023/07/16 00:35:15;;;;;;;11.15;7.20;;;;;;;26.14;47.39;99017.97;5056416;28;20063;-68
2023/07/16 00:37:41;;;;;;;12.82;7.40;;;;;;;26.12;47.34;99022.06;5006589;28;20048;-69
2023/07/16 00:40:08;;;;;;;12.05;7.07;;;;;;;26.18;47.45;99023.69;5022810;28;20529;-69
2023/07/16 00:42:36;;;;;;;7.28;6.43;;;;;;;26.33;47.54;99013.59;5039340;28;20127;-69
2023/07/16 00:45:06;;;;;;;7.63;6.85;;;;;;;26.27;47.47;99028.31;5022728;28;20131;-68
2023/07/16 00:47:34;;;;;;;8.18;6.82;;;;;;;26.21;47.44;99010.34;5023852;28;20048;-69
2023/07/16 00:50:01;;;;;;;10.25;7.25;;;;;;;26.09;47.71;99017.97;5036503;28;20063;-69
2023/07/16 00:52:29;;;;;;;15.10;7.10;;;;;;;26.06;47.76;99026.66;4988427;28;20475;-69
2023/07/16 00:54:55;;;;;;;13.25;7.00;;;;;;;26.05;47.93;99025.03;5003559;28;20285;-68
2023/07/16 00:57:22;;;;;;;13.48;7.05;;;;;;;26.08;47.66;99029.94;5003130;28;20227;-68
2023/07/16 00:59:51;;;;;;;12.40;6.88;;;;;;;26.29;48.10;99030.75;5035316;28;20144;-69
2023/07/16 01:02:17;;;;;;;17.00;7.25;;;;;;;26.16;48.08;99034.03;5002323;28;20148;-70
2023/07/16 01:04:43;;;;;;;15.13;7.45;;;;;;;25.99;48.30;99034.31;5035195;28;20091;-69
2023/07/16 01:07:11;;;;;;;11.07;6.70;;;;;;;26.28;48.13;99029.09;5018557;28;20494;-69
2023/07/16 01:09:40;;;;;;;11.60;6.97;;;;;;;26.24;48.16;99039.75;4986181;28;20057;-70
2023/07/16 01:12:07;;;;;;;7.75;6.72;;;;;;;26.15;47.86;99037.84;5018737;28;20053;-69
2023/07/16 01:14:35;;;;;;;9.55;7.15;;;;;;;26.12;47.67;99047.34;4971086;28;20052;-69
2023/07/16 01:17:06;;;;;;;10.18;6.32;;;;;;;26.31;47.75;99051.16;5018457;28;20111;-69
2023/07/16 01:19:34;;;;;;;9.30;7.20;;;;;;;26.21;47.87;99044.91;5002507;28;20053;-69
2023/07/16 01:22:10;;;;;;;12.20;7.43;;;;;;;26.07;48.04;99044.66;5053210;28;20052;-69
2023/07/16 01:25:11;;;;;;;9.18;6.15;;;;;;;26.46;47.79;99048.41;5021056;28;20055;-69
2023/07/16 01:28:10;;;;;;;13.60;6.43;;;;;;;26.70;47.29;99058.75;5011805;28;20053;-69
2023/07/16 01:30:38;;;;;;;9.00;6.05;;;;;;;26.56;47.37;99053.03;5019738;28;20147;-69
2023/07/16 01:33:04;;;;;;;9.40;6.45;;;;;;;26.48;46.92;99059.88;5003694;28;20049;-69
2023/07/16 01:35:31;;;;;;;8.80;5.80;;;;;;;26.59;46.77;99062.56;5019431;28;20049;-69
2023/07/16 01:37:57;;;;;;;8.68;6.20;;;;;;;26.55;46.71;99062.31;5018855;28;20041;-69
2023/07/16 01:40:23;;;;;;;9.57;5.68;;;;;;;26.68;46.20;99063.69;5002615;28;20617;-69
2023/07/16 01:42:54;;;;;;;12.25;5.80;;;;;;;26.78;46.06;99050.03;5035407;28;20093;-69
2023/07/16 01:45:24;;;;;;;11.40;5.95;;;;;;;26.91;46.04;99061.16;5020480;28;20139;-68
2023/07/16 01:48:03;;;;;;;10.02;6.40;;;;;;;27.09;45.97;99065.19;5051761;28;20048;-68
2023/07/16 01:50:29;;;;;;;9.77;6.80;;;;;;;26.85;45.77;99066.91;5002563;28;20044;-70
2023/07/16 01:52:55;;;;;;;11.52;6.10;;;;;;;26.89;45.27;99055.19;5002577;28;20049;-69
2023/07/16 01:55:24;;;;;;;7.55;5.15;;;;;;;27.03;45.04;99072.56;5034881;28;20167;-70
2023/07/16 01:57:52;;;;;;;10.90;5.82;;;;;;;27.11;44.70;99076.63;5018799;28;20471;-69
2023/07/16 02:00:19;;;;;;;7.15;5.55;;;;;;;27.17;44.36;99067.34;5019193;28;20049;-69
2023/07/16 02:02:46;;;;;;;10.38;5.60;;;;;;;27.37;44.07;99078.19;5035458;28;20395;-69
2023/07/16 02:05:14;;;;;;;10.75;5.65;;;;;;;27.40;43.91;99067.50;5003348;28;20037;-69
2023/07/16 02:07:40;;;;;;;8.18;6.05;;;;;;;27.23;44.27;99077.94;5002371;28;20118;-70
2023/07/16 02:10:07;;;;;;;10.63;5.25;;;;;;;27.37;44.12;99073.53;5018570;28;20149;-70
2023/07/16 02:12:34;;;;;;;10.02;5.18;;;;;;;27.55;43.88;99077.53;5002392;28;20092;-69
2023/07/16 02:15:03;;;;;;;8.45;5.57;;;;;;;27.35;43.84;99077.66;5035062;28;20120;-69
2023/07/16 02:17:35;;;;;;;10.45;5.47;;;;;;;27.35;43.96;99083.94;5038490;28;20445;-69
2023/07/16 02:20:05;;;;;;;9.23;5.40;;;;;;;27.43;43.68;99085.25;5021870;28;20053;-69
2023/07/16 02:22:31;;;;;;;7.53;5.30;;;;;;;27.53;43.44;99086.00;5001389;28;20118;-69
2023/07/16 02:24:57;;;;;;;7.68;5.53;;;;;;;27.58;43.01;99088.72;5017239;28;20053;-69
2023/07/16 02:27:24;;;;;;;8.45;5.20;;;;;;;27.64;43.13;99089.50;5000703;28;20060;-69
2023/07/16 02:29:51;;;;;;;6.60;5.10;;;;;;;27.61;43.12;99088.16;5017839;28;20087;-69
2023/07/16 02:32:17;;;;;;;11.55;5.40;;;;;;;27.68;42.74;99088.66;5016994;28;20045;-69
2023/07/16 02:34:46;;;;;;;11.88;5.20;;;;;;;27.97;42.67;99094.22;5034760;28;20061;-69
2023/07/16 02:37:13;;;;;;;6.93;5.10;;;;;;;27.75;42.67;99083.69;5004955;28;20427;-70
2023/07/16 02:39:45;;;;;;;10.25;5.60;;;;;;;27.94;42.82;99086.59;4989350;28;20064;-69
2023/07/16 02:42:13;;;;;;;8.18;5.05;;;;;;;27.78;42.31;99088.59;5021900;28;20041;-69
2023/07/16 02:44:44;;;;;;;9.05;4.90;;;;;;;27.95;42.51;99096.44;4989255;28;20202;-69
2023/07/16 02:47:12;;;;;;;12.75;5.03;;;;;;;27.77;42.55;99097.03;5006625;28;20714;-72
2023/07/16 02:49:38;;;;;;;8.00;4.85;;;;;;;27.88;42.58;99091.28;4986199;28;20064;-69
2023/07/16 02:52:06;;;;;;;10.45;4.80;;;;;;;27.99;42.50;99098.31;5001406;28;20464;-69
2023/07/16 02:54:32;;;;;;;8.32;5.00;;;;;;;27.98;42.35;99098.59;5001279;28;20503;-69
2023/07/16 02:56:59;;;;;;;8.25;5.10;;;;;;;27.93;42.46;99093.16;4984694;28;20041;-69
2023/07/16 02:59:27;;;;;;;11.25;4.65;;;;;;;28.03;42.10;99098.56;5007934;28;20135;-69
2023/07/16 03:01:53;;;;;;;9.23;4.90;;;;;;;28.09;41.75;99100.16;5005346;28;20475;-70
2023/07/16 03:04:20;;;;;;;8.25;4.88;;;;;;;28.06;42.01;99108.09;5004365;28;20055;-69
2023/07/16 03:06:45;;;;;;;10.27;5.20;;;;;;;28.10;41.93;99107.25;5004210;28;20466;-69
2023/07/16 03:09:11;;;;;;;11.55;4.93;;;;;;;28.10;41.87;99104.50;5020870;28;20048;-70
2023/07/16 03:11:38;;;;;;;12.77;5.53;;;;;;;28.28;41.58;99108.47;5004860;28;20063;-69
2023/07/16 03:14:04;;;;;;;8.77;5.00;;;;;;;28.25;41.47;99109.06;5021365;28;20080;-69
2023/07/16 03:16:30;;;;;;;12.60;5.30;;;;;;;28.31;41.33;99105.97;5005739;28;20064;-69
2023/07/16 03:18:56;;;;;;;8.63;4.85;;;;;;;28.30;41.17;99103.53;5005513;28;20045;-69
2023/07/16 03:21:22;;;;;;;9.30;4.75;;;;;;;28.36;41.29;99108.66;5004085;28;20048;-69
2023/07/16 03:23:48;;;;;;;10.93;5.18;;;;;;;28.53;41.04;99116.47;5004027;28;20240;-68
2023/07/16 03:26:16;;;;;;;8.88;5.00;;;;;;;28.52;40.73;99106.66;5020342;28;20045;-71
2023/07/16 03:28:42;;;;;;;8.88;4.70;;;;;;;28.52;40.91;99120.31;5004506;28;20137;-69
2023/07/16 03:31:10;;;;;;;12.85;4.97;;;;;;;28.57;40.83;99112.88;4988545;28;20068;-69
2023/07/16 03:33:41;;;;;;;5.53;4.63;;;;;;;28.62;40.88;99117.47;5021462;28;20045;-69
2023/07/16 03:36:09;;;;;;;11.65;4.95;;;;;;;28.86;40.67;99127.34;5004561;28;20059;-69
2023/07/16 03:38:35;;;;;;;8.85;4.97;;;;;;;28.71;40.70;99121.22;5020624;28;20045;-69
2023/07/16 03:41:02;;;;;;;10.13;5.50;;;;;;;28.83;40.15;99127.13;5004189;28;20049;-69
2023/07/16 03:43:29;;;;;;;8.15;4.90;;;;;;;28.89;40.19;99128.72;5003983;28;20114;-69
2023/07/16 03:46:07;;;;;;;10.77;4.88;;;;;;;28.97;39.92;99130.81;5003447;28;20045;-70
2023/07/16 03:48:35;;;;;;;10.02;4.68;;;;;;;29.11;39.66;99140.81;5003949;28;20633;-69
2023/07/16 03:51:01;;;;;;;7.82;4.90;;;;;;;29.07;39.41;99142.50;5019811;28;20045;-69
2023/07/16 03:53:28;;;;;;;14.57;4.97;;;;;;;29.15;39.49;99147.31;5003395;28;20475;-69
2023/07/16 03:55:54;;;;;;;14.30;5.15;;;;;;;29.15;39.41;99133.63;5003535;28;20098;-70
2023/07/16 03:58:20;;;;;;;13.50;5.30;;;;;;;29.29;39.43;99134.56;5003516;28;20049;-70
2023/07/16 04:00:46;;;;;;;8.10;4.68;;;;;;;29.40;38.87;99143.47;5003446;28;20483;-72
2023/07/16 04:03:13;;;;;;;11.00;5.00;;;;;;;29.57;38.83;99155.56;5003330;28;20056;-69
2023/07/16 04:05:40;;;;;;;8.90;5.00;;;;;;;29.55;38.83;99146.84;5036087;28;20411;-71
2023/07/16 04:08:06;;;;;;;10.45;4.55;;;;;;;29.64;38.51;99149.78;5002982;28;20363;-70
2023/07/16 04:10:32;;;;;;;8.38;4.78;;;;;;;29.69;38.35;99155.19;5002964;28;20094;-69
2023/07/16 04:12:58;;;;;;;8.52;4.65;;;;;;;29.73;38.33;99153.50;5003152;28;20361;-69
2023/07/16 04:15:27;;;;;;;10.07;4.78;;;;;;;29.86;38.32;99152.75;5003311;28;20467;-69
2023/07/16 04:17:56;;;;;;;8.80;4.72;;;;;;;29.78;38.23;99144.38;5019789;28;20414;-69
2023/07/16 04:20:25;;;;;;;10.93;5.68;;;;;;;29.78;37.99;99138.91;5011987;28;20058;-69
2023/07/16 04:22:52;;;;;;;10.48;5.07;;;;;;;29.90;37.86;99148.31;4978086;28;20069;-69
2023/07/16 04:25:19;;;;;;;8.15;5.18;;;;;;;29.96;37.69;99140.84;4961377;28;20165;-73
2023/07/16 04:27:46;;;;;;;7.60;4.55;;;;;;;29.96;37.63;99151.78;4960806;28;20062;-70
2023/07/16 04:30:13;;;;;;;8.93;5.43;;;;;;;30.09;37.86;99146.38;4960652;28;20056;-69
2023/07/16 04:32:40;;;;;;;6.93;4.85;;;;;;;30.06;37.76;99146.19;4956218;28;20058;-69
2023/07/16 04:35:07;;;;;;;10.32;4.80;;;;;;;30.09;37.55;99149.13;4910245;28;20049;-69
2023/07/16 04:37:33;;;;;;;11.25;4.78;;;;;;;30.09;37.41;99151.06;4925389;28;20146;-69
2023/07/16 04:39:59;;;;;;;8.48;5.30;;;;;;;30.43;37.05;99155.22;4925386;28;20083;-69
2023/07/16 04:42:26;;;;;;;13.13;5.35;;;;;;;30.44;36.74;99154.13;4925379;28;20569;-69
2023/07/16 04:44:56;;;;;;;14.23;5.35;;;;;;;30.75;36.33;99165.41;4972948;28;20105;-70
2023/07/16 04:47:22;;;;;;;7.95;5.13;;;;;;;30.54;36.51;99156.69;4940894;28;20051;-70
2023/07/16 04:49:48;;;;;;;15.68;5.30;;;;;;;30.50;36.62;99163.06;4941243;28;20046;-69
2023/07/16 04:52:16;;;;;;;8.77;4.88;;;;;;;30.49;36.43;99154.00;4973565;28;20062;-69
2023/07/16 04:54:45;;;;;;;9.93;4.77;;;;;;;30.62;36.65;99158.75;4947594;28;20072;-69
2023/07/16 04:57:14;;;;;;;7.93;4.88;;;;;;;30.51;36.32;99151.78;4979407;28;20799;-69
2023/07/16 04:59:42;;;;;;;9.70;5.25;;;;;;;30.56;36.24;99151.72;4947834;28;20149;-69
2023/07/16 05:02:09;;;;;;;7.75;4.70;;;;;;;30.60;36.50;99146.47;4956478;28;20922;-69
2023/07/16 05:04:36;;;;;;;9.10;4.68;;;;;;;30.64;36.14;99148.28;4993718;28;20470;-69
2023/07/16 05:07:02;;;;;;;7.00;4.60;;;;;;;30.76;36.34;99145.09;4965982;28;20060;-69
2023/07/16 05:09:28;;;;;;;7.05;4.72;;;;;;;31.01;35.87;99152.88;5015049;28;20144;-69
2023/07/16 05:11:54;;;;;;;11.93;4.97;;;;;;;31.08;35.49;99153.28;4966090;28;20132;-69
2023/07/16 05:14:20;;;;;;;9.25;4.82;;;;;;;31.14;35.39;99152.88;4999002;28;20076;-69
2023/07/16 05:16:48;;;;;;;9.20;4.55;;;;;;;31.18;35.38;99164.06;4998709;28;20053;-69
2023/07/16 05:19:16;;;;;;;7.75;5.00;;;;;;;31.38;35.34;99151.91;4966521;28;20042;-70
2023/07/16 05:21:44;;;;;;;11.60;5.35;;;;;;;31.29;34.88;99162.81;5015194;28;20140;-69
2023/07/16 05:24:10;;;;;;;8.95;5.10;;;;;;;31.21;34.92;99162.66;4982265;28;20055;-69
2023/07/16 05:26:36;;;;;;;7.78;4.70;;;;;;;31.19;35.05;99160.19;4997873;28;20531;-69
2023/07/16 05:29:02;;;;;;;7.72;4.55;;;;;;;31.38;34.98;99158.22;4982222;28;20049;-69
2023/07/16 05:31:28;;;;;;;11.65;4.55;;;;;;;31.45;34.85;99155.06;4982020;28;20037;-69
2023/07/16 05:34:00;;;;;;;9.00;4.60;;;;;;;31.69;34.89;99169.38;5044964;28;20131;-69
2023/07/16 05:36:28;;;;;;;10.73;5.10;;;;;;;31.58;34.38;99167.97;5034624;28;20079;-68
2023/07/16 05:38:56;;;;;;;12.57;4.95;;;;;;;31.56;34.41;99171.03;5014143;28;20060;-69
2023/07/16 05:41:22;;;;;;;7.20;4.68;;;;;;;31.67;34.40;99180.69;4998352;28;20049;-71
2023/07/16 05:43:47;;;;;;;9.52;4.88;;;;;;;31.63;34.34;99176.91;4982105;28;20538;-69
2023/07/16 05:46:14;;;;;;;9.68;4.72;;;;;;;31.70;34.34;99171.81;5014475;28;20107;-68
2023/07/16 05:48:40;;;;;;;8.23;4.68;;;;;;;31.86;34.12;99173.16;4981947;28;20123;-68
2023/07/16 05:51:06;;;;;;;8.15;4.90;;;;;;;31.93;33.45;99173.56;4981676;28;20052;-68
2023/07/16 05:53:32;;;;;;;9.00;4.95;;;;;;;32.11;33.07;99169.84;4981552;28;20415;-69
2023/07/16 05:55:58;;;;;;;6.85;4.68;;;;;;;32.37;32.89;99176.41;4997765;28;20132;-69
2023/07/16 05:58:24;;;;;;;10.10;5.00;;;;;;;32.31;32.80;99174.03;4997953;28;20164;-71
2023/07/16 06:00:50;;;;;;;9.43;4.70;;;;;;;32.43;32.51;99166.09;4981653;28;20535;-69
2023/07/16 06:03:16;;;;;;;12.10;5.60;;;;;;;32.36;32.74;99173.97;4981566;28;20042;-69
2023/07/16 06:05:43;;;;;;;9.15;4.68;;;;;;;32.57;32.74;99177.84;4981412;28;20048;-70
2023/07/16 06:08:17;;;;;;;9.32;4.55;;;;;;;32.80;32.22;99170.41;5013593;28;20154;-70
2023/07/16 06:10:46;;;;;;;9.80;4.40;;;;;;;32.93;32.09;99167.59;5006989;28;20084;-69
2023/07/16 06:13:12;;;;;;;7.95;4.50;;;;;;;32.94;31.75;99165.69;4997594;28;20053;-70
2023/07/16 06:15:40;;;;;;;9.52;4.63;;;;;;;32.96;31.60;99166.97;4997836;28;20045;-68
2023/07/16 06:18:06;;;;;;;5.88;4.05;;;;;;;33.25;31.32;99167.28;4965109;28;20371;-69
2023/07/16 06:20:33;;;;;;;6.03;3.97;;;;;;;33.48;31.32;99165.28;4965417;28;20041;-69
2023/07/16 06:23:01;;;;;;;6.45;4.38;;;;;;;33.67;31.21;99165.84;4981769;28;20064;-69
2023/07/16 06:25:27;;;;;;;8.30;4.38;;;;;;;33.56;30.69;99175.53;5014021;28;20045;-69
2023/07/16 06:27:53;;;;;;;6.30;4.35;;;;;;;33.52;30.73;99178.09;4998402;28;20407;-69
2023/07/16 06:30:19;;;;;;;8.00;4.50;;;;;;;33.44;30.91;99170.63;5014105;28;20396;-69
2023/07/16 06:32:46;;;;;;;9.52;5.30;;;;;;;33.52;30.98;99171.78;4997922;28;20046;-69
2023/07/16 06:35:12;;;;;;;13.25;5.32;;;;;;;33.52;30.99;99169.03;5031109;28;20087;-71
2023/07/16 06:37:41;;;;;;;11.00;4.88;;;;;;;33.59;30.93;99177.63;4997168;28;20473;-69
2023/07/16 06:40:07;;;;;;;8.55;4.35;;;;;;;34.01;30.64;99183.28;4981454;28;20076;-69
2023/07/16 06:42:34;;;;;;;7.32;4.25;;;;;;;34.16;30.09;99182.00;4981432;28;20377;-69
2023/07/16 06:45:00;;;;;;;8.82;4.50;;;;;;;34.47;29.88;99177.19;4981437;28;20047;-70
2023/07/16 06:47:31;;;;;;;7.47;4.30;;;;;;;34.94;28.73;99172.56;4998494;28;20087;-69
2023/07/16 06:49:58;;;;;;;6.82;4.35;;;;;;;35.24;28.32;99180.59;4997515;28;20092;-69
2023/07/16 06:52:27;;;;;;;16.15;3.92;;;;;;;35.26;28.52;99178.31;4965243;28;20046;-69
2023/07/16 06:54:55;;;;;;;8.25;3.95;;;;;;;35.65;28.39;99182.75;4965605;28;20100;-69
2023/07/16 06:57:22;;;;;;;7.85;4.00;;;;;;;35.74;27.66;99183.50;4965406;28;20146;-69
2023/07/16 06:59:48;;;;;;;5.53;3.85;;;;;;;35.83;27.24;99189.03;4983109;28;20052;-69
2023/07/16 07:02:16;;;;;;;7.47;3.80;;;;;;;35.91;27.23;99185.38;5037438;28;20057;-69
2023/07/16 07:04:41;;;;;;;7.90;3.95;;;;;;;35.75;27.33;99182.38;5054053;28;20210;-70
2023/07/16 07:07:07;;;;;;;8.77;4.20;;;;;;;35.73;27.34;99191.00;5036692;28;20534;-69
2023/07/16 07:09:34;;;;;;;4.53;3.75;;;;;;;35.77;27.36;99180.06;5036775;28;20046;-69
2023/07/16 07:11:59;;;;;;;8.68;3.90;;;;;;;35.79;27.21;99186.06;5019890;28;20040;-69
2023/07/16 07:14:26;;;;;;;7.75;4.00;;;;;;;35.82;27.21;99184.59;5053544;28;20198;-69
2023/07/16 07:16:52;;;;;;;5.60;3.90;;;;;;;36.05;26.82;99188.69;5020316;28;20127;-69
2023/07/16 07:19:19;;;;;;;6.75;3.92;;;;;;;36.43;26.24;99183.91;5036563;28;20045;-69
2023/07/16 07:21:46;;;;;;;9.23;4.10;;;;;;;36.69;25.88;99179.72;5023051;28;20067;-69
2023/07/16 07:24:13;;;;;;;6.95;4.05;;;;;;;36.84;25.93;99186.63;5040105;28;20055;-69
2023/07/16 07:26:39;;;;;;;5.35;3.33;;;;;;;36.87;25.61;99180.41;5004142;28;20057;-69
2023/07/16 07:29:05;;;;;;;6.40;3.42;;;;;;;36.87;25.34;99185.94;5038129;28;20060;-70
2023/07/16 07:31:32;;;;;;;6.57;3.95;;;;;;;36.79;25.57;99184.88;5021520;28;20106;-69
2023/07/16 07:34:02;;;;;;;6.90;4.00;;;;;;;36.60;26.11;99186.50;5038128;28;20037;-69
2023/07/16 07:36:29;;;;;;;11.25;3.75;;;;;;;36.38;26.16;99195.16;5021473;28;20041;-69
2023/07/16 07:38:55;;;;;;;8.50;3.92;;;;;;;36.11;26.48;99187.34;5021693;28;20049;-69
2023/07/16 07:41:21;;;;;;;10.75;4.13;;;;;;;35.86;26.71;99186.38;5037346;28;20037;-69
2023/07/16 07:43:48;;;;;;;9.60;3.80;;;;;;;36.08;26.69;99188.84;5004686;28;20155;-69
2023/07/16 07:46:15;;;;;;;5.72;3.28;;;;;;;37.29;25.01;99195.75;5021026;28;20531;-69
2023/07/16 07:48:40;;;;;;;4.38;3.08;;;;;;;38.34;23.63;99190.09;5004349;28;20044;-69
2023/07/16 07:51:06;;;;;;;9.25;3.30;;;;;;;39.10;22.34;99195.47;5004486;28;20135;-69
2023/07/16 07:53:32;;;;;;;7.05;3.00;;;;;;;39.74;21.72;99187.63;5020716;28;20048;-69
2023/07/16 07:55:59;;;;;;;8.90;3.15;;;;;;;39.60;21.57;99193.66;5020998;28;20041;-69
2023/07/16 07:58:24;;;;;;;4.85;3.30;;;;;;;39.35;22.10;99186.63;5004707;28;20048;-69
2023/07/16 08:00:50;;;;;;;4.68;3.75;;;;;;;39.17;22.05;99195.66;5004582;28;20152;-69
2023/07/16 08:03:16;;;;;;;5.07;3.03;;;;;;;39.26;21.99;99197.09;5021019;28;20525;-69
2023/07/16 08:05:42;;;;;;;4.95;3.17;;;;;;;39.49;21.98;99189.78;5004746;28;20080;-69
2023/07/16 08:08:08;;;;;;;6.65;3.38;;;;;;;39.63;21.67;99186.53;5005679;28;20080;-69
2023/07/16 08:10:37;;;;;;;10.60;2.92;;;;;;;40.30;20.79;99199.31;5006507;28;20048;-69
2023/07/16 08:13:09;;;;;;;11.02;3.35;;;;;;;40.44;20.44;99192.06;5004944;28;20041;-70
2023/07/16 08:15:35;;;;;;;5.30;3.10;;;;;;;40.08;20.45;99193.25;5037180;28;20399;-69
2023/07/16 08:18:01;;;;;;;3.70;2.88;;;;;;;39.85;20.72;99183.97;5020453;28;20044;-72
2023/07/16 08:20:30;;;;;;;6.40;3.15;;;;;;;39.84;21.15;99182.31;4988534;28;20377;-69
2023/07/16 08:22:56;;;;;;;6.43;3.10;;;;;;;39.72;21.15;99185.19;5020441;28;20044;-70
2023/07/16 08:25:22;;;;;;;5.68;2.70;;;;;;;39.71;21.06;99182.78;5053387;28;20048;-69
2023/07/16 08:27:50;;;;;;;3.72;2.72;;;;;;;39.71;20.70;99180.00;5003789;28;20118;-69
2023/07/16 08:30:19;;;;;;;6.32;3.00;;;;;;;39.80;20.63;99180.59;5007873;28;20136;-69
2023/07/16 08:32:45;;;;;;;6.50;2.90;;;;;;;39.70;20.96;99178.41;4982712;28;20060;-69
2023/07/16 08:35:20;;;;;;;6.32;3.08;;;;;;;39.44;21.26;99178.16;5015690;28;20046;-69
2023/07/16 08:37:57;;;;;;;9.82;3.20;;;;;;;39.23;21.53;99174.81;5014582;28;20096;-69
2023/07/16 08:40:23;;;;;;;7.50;3.42;;;;;;;39.26;21.32;99174.09;4999275;28;20729;-69
2023/07/16 08:42:49;;;;;;;6.75;2.83;;;;;;;39.54;20.52;99189.53;4999393;28;20131;-69
2023/07/16 08:45:18;;;;;;;4.10;2.60;;;;;;;40.02;20.17;99185.53;4999140;28;20084;-69
2023/07/16 08:47:45;;;;;;;4.30;2.80;;;;;;;40.86;19.19;99178.22;5015908;28;20061;-69
2023/07/16 08:50:11;;;;;;;3.80;2.47;;;;;;;41.97;18.25;99175.00;4999069;28;20073;-69
2023/07/16 08:52:37;;;;;;;3.50;2.38;;;;;;;44.39;15.90;99169.13;5031738;28;20152;-70
2023/07/16 08:55:03;;;;;;;5.90;2.30;;;;;;;46.90;13.86;99171.50;4998782;28;20144;-72
2023/07/16 08:57:30;;;;;;;7.72;2.10;;;;;;;49.31;12.00;99156.06;4999067;28;20045;-70
2023/07/16 08:59:56;;;;;;;4.35;1.83;;;;;;;51.42;10.47;99161.06;4998625;28;20107;-71
2023/07/16 09:02:23;;;;;;;3.67;2.00;;;;;;;52.65;9.51;99157.66;4998548;28;20060;-70
2023/07/16 09:04:51;;;;;;;4.20;2.10;;;;;;;54.05;8.93;99162.75;5022071;28;20114;-70
2023/07/16 09:07:17;;;;;;;7.05;1.95;;;;;;;55.03;7.94;99167.53;5037698;28;20147;-71
2023/07/16 09:09:57;;;;;;;5.70;1.85;;;;;;;56.31;7.22;99164.44;5021523;28;20139;-70
2023/07/16 09:12:24;;;;;;;3.85;1.70;;;;;;;57.14;6.99;99161.69;5054479;28;20494;-71
2023/07/16 09:14:50;;;;;;;5.13;1.75;;;;;;;57.71;6.36;99151.06;5021869;28;20082;-71
2023/07/16 09:17:24;;;;;;;3.00;1.73;;;;;;;58.74;5.38;99142.16;5022203;28;20114;-71
2023/07/16 09:19:51;;;;;;;4.20;1.67;;;;;;;59.41;5.27;99146.06;5034006;28;20052;-71
2023/07/16 09:22:22;;;;;;;3.72;1.70;;;;;;;59.98;5.04;99136.38;5001502;28;20045;-71
2023/07/16 09:24:53;;;;;;;3.97;1.75;;;;;;;59.78;4.53;99147.84;5034518;28;20407;-70
2023/07/16 09:27:21;;;;;;;2.20;1.50;;;;;;;59.95;5.12;99134.53;4994461;28;20057;-70
2023/07/16 09:29:48;;;;;;;5.88;1.98;;;;;;;60.23;4.97;99137.69;4962549;28;20049;-71
2023/07/16 09:32:14;;;;;;;4.28;1.83;;;;;;;60.77;4.38;99136.66;4962290;28;20159;-71
2023/07/16 09:34:40;;;;;;;4.18;1.73;;;;;;;61.06;4.08;99130.63;4978671;28;20148;-71
2023/07/16 09:37:06;;;;;;;3.60;1.67;;;;;;;61.41;4.11;99130.31;4994715;28;20144;-71
2023/07/16 09:39:38;;;;;;;4.32;1.80;;;;;;;61.91;3.93;99128.44;4974943;28;20078;-72
2023/07/16 09:42:07;;;;;;;4.60;1.70;;;;;;;62.30;3.36;99120.66;4975380;28;20141;-74
2023/07/16 09:44:34;;;;;;;3.08;1.50;;;;;;;62.09;3.91;99118.56;4958512;28;20149;-71
2023/07/16 09:47:00;;;;;;;4.00;1.60;;;;;;;61.44;3.95;99126.41;4958878;28;20512;-71
2023/07/16 09:49:28;;;;;;;4.53;1.52;;;;;;;60.18;4.51;99115.47;4959120;28;20058;-71
2023/07/16 09:51:55;;;;;;;;;;;;;;;58.49;5.07;99105.53;4959347;28;20054;-71
2023/07/16 09:54:21;;;;;;;4.43;1.70;;;;;;;58.28;5.17;99108.78;4975364;28;19921;-71
2023/07/16 09:56:58;;;;;;;4.80;1.65;;;;;;;58.80;4.84;99099.28;4959001;28;20577;-70
2023/07/16 09:59:26;;;;;;;6.25;1.70;;;;;;;59.43;4.93;99097.59;4963964;28;20041;-70
2023/07/16 10:01:54;;;;;;;3.08;1.65;;;;;;;60.01;4.23;99105.91;5033823;28;20053;-70
2023/07/16 10:04:23;;;;;;;3.10;1.67;;;;;;;58.98;4.94;99088.41;5000965;28;20060;-70
2023/07/16 10:06:57;;;;;;;4.45;2.15;;;;;;;56.74;5.75;99094.75;5033725;28;20118;-70
2023/07/16 10:09:35;;;;;;;3.95;1.92;;;;;;;54.76;6.86;99088.47;5000927;28;20538;-70
2023/07/16 10:12:28;;;;;;;5.90;2.00;;;;;;;55.48;6.60;99084.28;5033878;28;20594;-70
2023/07/16 10:14:59;;;;;;;5.22;1.83;;;;;;;56.92;5.84;99080.38;4983406;28;20505;-70
2023/07/16 10:17:27;;;;;;;2.70;1.80;;;;;;;58.29;5.52;99076.00;4996032;28;20061;-70
2023/07/16 10:20:09;;;;;;;6.53;2.20;;;;;;;59.03;4.63;99081.97;5051144;28;20110;-70
2023/07/16 10:22:38;;;;;;;3.35;1.50;;;;;;;59.71;4.77;99093.03;5002239;28;20048;-70
2023/07/16 10:25:24;;;;;;;3.60;1.40;;;;;;;60.77;3.80;99102.19;5018169;28;20064;-70
2023/07/16 10:27:52;;;;;;;4.43;1.58;;;;;;;61.12;4.13;99099.81;5001564;28;20132;-70
2023/07/16 10:30:18;;;;;;;7.18;1.70;;;;;;;61.50;3.44;99099.25;4997171;28;20376;-70
2023/07/16 10:32:45;;;;;;;1.40;1.30;;;;;;;61.68;3.56;99093.06;4981806;28;20164;-71
2023/07/16 10:35:12;;;;;;;3.30;1.60;;;;;;;61.47;3.55;99103.13;4966056;28;20049;-71
2023/07/16 10:37:41;;;;;;;5.50;1.40;;;;;;;61.99;3.27;99102.81;4981076;28;20041;-74
2023/07/16 10:40:13;;;;;;;7.53;1.70;;;;;;;62.05;2.85;99104.44;4965474;28;20511;-71
2023/07/16 10:42:44;;;;;;;7.88;1.70;;;;;;;61.34;3.34;99087.66;4964885;28;20052;-74
2023/07/16 10:45:12;;;;;;;2.97;1.60;;;;;;;61.02;3.50;99101.34;4981085;28;20144;-71
2023/07/16 10:47:56;;;;;;;5.30;1.60;;;;;;;59.26;4.09;99090.84;5029872;28;20138;-71
2023/07/16 10:50:24;;;;;;;2.08;1.38;;;;;;;57.26;5.12;99080.72;4996858;28;20051;-71
2023/07/16 10:52:55;;;;;;;2.72;1.23;;;;;;;57.08;5.26;99083.66;4997443;28;20046;-71
2023/07/16 10:55:25;;;;;;;2.20;1.42;;;;;;;57.27;5.29;99076.56;4981755;28;20053;-70
2023/07/16 10:57:53;;;;;;;3.63;1.42;;;;;;;57.68;4.89;99072.00;5001175;28;20630;-71
2023/07/16 11:00:21;;;;;;;2.58;1.40;;;;;;;56.97;5.19;99076.91;4989480;28;20140;-70
2023/07/16 11:02:48;;;;;;;2.17;1.48;;;;;;;55.79;6.06;99076.41;5024062;28;20064;-70
2023/07/16 11:05:15;;;;;;;5.00;1.70;;;;;;;55.76;5.54;99072.44;5007492;28;20051;-71
2023/07/16 11:07:49;;;;;;;3.15;1.40;;;;;;;56.29;5.31;99073.63;5040635;28;20155;-70
2023/07/16 11:10:15;;;;;;;2.90;1.40;;;;;;;56.43;5.08;99080.75;5024084;28;20051;-70
2023/07/16 11:12:43;;;;;;;5.30;1.45;;;;;;;56.00;5.67;99069.72;5007652;28;20202;-70
2023/07/16 11:15:10;;;;;;;3.88;1.52;;;;;;;55.05;6.29;99065.34;5024343;28;20047;-69
2023/07/16 11:17:39;;;;;;;5.35;1.75;;;;;;;53.39;6.75;99056.69;5040464;28;20466;-70
2023/07/16 11:20:08;;;;;;;2.30;1.70;;;;;;;52.01;7.79;99050.19;5024580;28;20466;-69
2023/07/16 11:22:37;;;;;;;2.60;1.80;;;;;;;51.14;8.06;99053.34;5000704;28;20049;-69
2023/07/16 11:25:03;;;;;;;6.93;1.90;;;;;;;50.22;8.61;99051.88;5033842;28;20491;-69
2023/07/16 11:27:31;;;;;;;4.07;1.75;;;;;;;49.29;9.12;99030.69;4984953;28;20061;-69
2023/07/16 11:29:59;;;;;;;2.13;1.92;;;;;;;48.58;10.03;99036.66;5000091;28;20048;-69
2023/07/16 11:32:34;;;;;;;2.00;1.80;;;;;;;47.93;10.18;99020.25;4984414;28;20561;-69
2023/07/16 11:35:02;;;;;;;7.20;1.80;;;;;;;47.46;10.66;99038.81;5000456;28;20523;-69
2023/07/16 11:37:34;;;;;;;4.55;2.00;;;;;;;46.83;11.10;99040.16;5017349;28;20060;-69